sensor_id;sensor_type;location;lat;lon;timestamp;P1;durP1;ratioP1;P2;durP2;ratioP2
23714;SDS011;12036;50.858;4.472;2023-04-24T00:00:07;22.27;;;13.45;;
23714;SDS011;12036;50.858;4.472;2023-04-24T00:02:43;22.25;;;11.50;;
23714;SDS011;12036;50.858;4.472;2023-04-24T00:05:12;21.98;;;12.65;;
23714;SDS011;12036;50.858;4.472;2023-04-24T00:07:39;22.52;;;12.52;;
23714;SDS011;12036;50.858;4.472;2023-04-24T00:10:09;22.95;;;11.90;;
23714;SDS011;12036;50.858;4.472;2023-04-24T00:12:36;22.88;;;11.77;;
23714;SDS011;12036;50.858;4.472;2023-04-24T00:15:02;25.98;;;12.18;;
23714;SDS011;12036;50.858;4.472;2023-04-24T00:17:28;23.45;;;12.50;;
23714;SDS011;12036;50.858;4.472;2023-04-24T00:19:54;25.45;;;12.90;;
23714;SDS011;12036;50.858;4.472;2023-04-24T00:22:28;22.33;;;12.23;;
23714;SDS011;12036;50.858;4.472;2023-04-24T00:24:53;21.63;;;11.68;;
23714;SDS011;12036;50.858;4.472;2023-04-24T00:27:19;21.05;;;12.90;;
23714;SDS011;12036;50.858;4.472;2023-04-24T00:29:45;23.02;;;12.50;;
23714;SDS011;12036;50.858;4.472;2023-04-24T00:32:11;21.27;;;12.00;;
23714;SDS011;12036;50.858;4.472;2023-04-24T00:34:36;21.70;;;11.60;;
23714;SDS011;12036;50.858;4.472;2023-04-24T00:37:02;22.50;;;12.75;;
23714;SDS011;12036;50.858;4.472;2023-04-24T00:39:28;24.48;;;13.13;;
23714;SDS011;12036;50.858;4.472;2023-04-24T00:41:53;25.52;;;13.15;;
23714;SDS011;12036;50.858;4.472;2023-04-24T00:44:20;20.75;;;13.07;;
23714;SDS011;12036;50.858;4.472;2023-04-24T00:46:46;28.80;;;12.93;;
23714;SDS011;12036;50.858;4.472;2023-04-24T00:49:16;26.95;;;14.38;;
23714;SDS011;12036;50.858;4.472;2023-04-24T00:51:43;30.00;;;14.10;;
23714;SDS011;12036;50.858;4.472;2023-04-24T00:54:11;28.77;;;13.52;;
23714;SDS011;12036;50.858;4.472;2023-04-24T00:56:37;25.45;;;12.68;;
23714;SDS011;12036;50.858;4.472;2023-04-24T00:59:03;25.10;;;13.60;;
23714;SDS011;12036;50.858;4.472;2023-04-24T01:01:29;28.00;;;13.38;;
23714;SDS011;12036;50.858;4.472;2023-04-24T01:03:55;24.90;;;14.13;;
23714;SDS011;12036;50.858;4.472;2023-04-24T01:06:22;26.48;;;13.52;;
23714;SDS011;12036;50.858;4.472;2023-04-24T01:08:52;27.95;;;14.23;;
23714;SDS011;12036;50.858;4.472;2023-04-24T01:11:18;26.40;;;14.15;;
23714;SDS011;12036;50.858;4.472;2023-04-24T01:13:44;26.35;;;14.45;;
23714;SDS011;12036;50.858;4.472;2023-04-24T01:16:10;31.05;;;14.18;;
23714;SDS011;12036;50.858;4.472;2023-04-24T01:18:36;22.98;;;13.98;;
23714;SDS011;12036;50.858;4.472;2023-04-24T01:21:03;21.80;;;13.68;;
23714;SDS011;12036;50.858;4.472;2023-04-24T01:23:29;26.08;;;13.38;;
23714;SDS011;12036;50.858;4.472;2023-04-24T01:25:55;26.05;;;13.63;;
23714;SDS011;12036;50.858;4.472;2023-04-24T01:28:21;28.67;;;12.63;;
23714;SDS011;12036;50.858;4.472;2023-04-24T01:30:47;22.98;;;13.13;;
23714;SDS011;12036;50.858;4.472;2023-04-24T01:33:13;24.20;;;13.63;;
23714;SDS011;12036;50.858;4.472;2023-04-24T01:35:39;20.95;;;11.63;;
23714;SDS011;12036;50.858;4.472;2023-04-24T01:38:05;25.45;;;13.18;;
23714;SDS011;12036;50.858;4.472;2023-04-24T01:40:31;27.23;;;12.18;;
23714;SDS011;12036;50.858;4.472;2023-04-24T01:42:57;19.30;;;11.55;;
23714;SDS011;12036;50.858;4.472;2023-04-24T01:45:23;21.05;;;11.57;;
23714;SDS011;12036;50.858;4.472;2023-04-24T01:47:49;26.20;;;11.98;;
23714;SDS011;12036;50.858;4.472;2023-04-24T01:50:15;22.35;;;11.52;;
23714;SDS011;12036;50.858;4.472;2023-04-24T01:52:41;21.13;;;11.52;;
23714;SDS011;12036;50.858;4.472;2023-04-24T01:55:07;19.17;;;11.48;;
23714;SDS011;12036;50.858;4.472;2023-04-24T01:57:34;21.60;;;11.20;;
23714;SDS011;12036;50.858;4.472;2023-04-24T02:00:00;25.65;;;11.77;;
23714;SDS011;12036;50.858;4.472;2023-04-24T02:02:26;25.70;;;12.43;;
23714;SDS011;12036;50.858;4.472;2023-04-24T02:04:54;16.27;;;11.48;;
23714;SDS011;12036;50.858;4.472;2023-04-24T02:07:20;22.40;;;11.55;;
23714;SDS011;12036;50.858;4.472;2023-04-24T02:09:46;20.52;;;12.50;;
23714;SDS011;12036;50.858;4.472;2023-04-24T02:12:11;25.27;;;12.35;;
23714;SDS011;12036;50.858;4.472;2023-04-24T02:14:37;26.23;;;12.75;;
23714;SDS011;12036;50.858;4.472;2023-04-24T02:17:03;21.10;;;11.57;;
23714;SDS011;12036;50.858;4.472;2023-04-24T02:19:29;22.08;;;12.60;;
23714;SDS011;12036;50.858;4.472;2023-04-24T02:21:55;24.67;;;13.45;;
23714;SDS011;12036;50.858;4.472;2023-04-24T02:24:21;21.90;;;13.90;;
23714;SDS011;12036;50.858;4.472;2023-04-24T02:26:46;25.77;;;14.00;;
23714;SDS011;12036;50.858;4.472;2023-04-24T02:29:12;24.67;;;13.52;;
23714;SDS011;12036;50.858;4.472;2023-04-24T02:31:38;20.20;;;12.07;;
23714;SDS011;12036;50.858;4.472;2023-04-24T02:34:03;24.67;;;14.02;;
23714;SDS011;12036;50.858;4.472;2023-04-24T02:36:29;28.50;;;14.63;;
23714;SDS011;12036;50.858;4.472;2023-04-24T02:38:55;24.25;;;14.38;;
23714;SDS011;12036;50.858;4.472;2023-04-24T02:41:21;28.17;;;15.07;;
23714;SDS011;12036;50.858;4.472;2023-04-24T02:43:46;27.25;;;13.82;;
23714;SDS011;12036;50.858;4.472;2023-04-24T02:46:12;21.60;;;13.57;;
23714;SDS011;12036;50.858;4.472;2023-04-24T02:48:37;23.10;;;12.80;;
23714;SDS011;12036;50.858;4.472;2023-04-24T02:51:03;23.73;;;13.20;;
23714;SDS011;12036;50.858;4.472;2023-04-24T02:53:29;26.75;;;13.27;;
23714;SDS011;12036;50.858;4.472;2023-04-24T02:55:55;18.40;;;12.82;;
23714;SDS011;12036;50.858;4.472;2023-04-24T02:58:21;20.00;;;12.07;;
23714;SDS011;12036;50.858;4.472;2023-04-24T03:00:47;19.05;;;12.85;;
23714;SDS011;12036;50.858;4.472;2023-04-24T03:03:13;25.35;;;12.38;;
23714;SDS011;12036;50.858;4.472;2023-04-24T03:05:40;19.02;;;12.40;;
23714;SDS011;12036;50.858;4.472;2023-04-24T03:08:05;19.48;;;12.73;;
23714;SDS011;12036;50.858;4.472;2023-04-24T03:10:32;19.55;;;12.05;;
23714;SDS011;12036;50.858;4.472;2023-04-24T03:12:58;18.10;;;11.35;;
23714;SDS011;12036;50.858;4.472;2023-04-24T03:15:23;15.68;;;7.80;;
23714;SDS011;12036;50.858;4.472;2023-04-24T03:17:49;18.98;;;11.90;;
23714;SDS011;12036;50.858;4.472;2023-04-24T03:20:15;15.50;;;9.93;;
23714;SDS011;12036;50.858;4.472;2023-04-24T03:22:40;16.02;;;9.73;;
23714;SDS011;12036;50.858;4.472;2023-04-24T03:25:06;21.52;;;10.73;;
23714;SDS011;12036;50.858;4.472;2023-04-24T03:27:34;18.77;;;10.15;;
23714;SDS011;12036;50.858;4.472;2023-04-24T03:30:00;16.23;;;9.35;;
23714;SDS011;12036;50.858;4.472;2023-04-24T03:32:26;14.50;;;9.13;;
23714;SDS011;12036;50.858;4.472;2023-04-24T03:34:51;13.77;;;8.57;;
23714;SDS011;12036;50.858;4.472;2023-04-24T03:37:17;17.65;;;9.02;;
23714;SDS011;12036;50.858;4.472;2023-04-24T03:39:43;17.35;;;9.10;;
23714;SDS011;12036;50.858;4.472;2023-04-24T03:42:08;18.50;;;9.27;;
23714;SDS011;12036;50.858;4.472;2023-04-24T03:44:35;12.52;;;9.15;;
23714;SDS011;12036;50.858;4.472;2023-04-24T03:47:01;12.63;;;8.48;;
23714;SDS011;12036;50.858;4.472;2023-04-24T03:49:26;16.27;;;8.38;;
23714;SDS011;12036;50.858;4.472;2023-04-24T03:51:52;10.90;;;7.68;;
23714;SDS011;12036;50.858;4.472;2023-04-24T03:54:18;12.98;;;7.85;;
23714;SDS011;12036;50.858;4.472;2023-04-24T03:56:44;13.35;;;8.07;;
23714;SDS011;12036;50.858;4.472;2023-04-24T03:59:10;10.55;;;7.57;;
23714;SDS011;12036;50.858;4.472;2023-04-24T04:01:35;11.85;;;6.63;;
23714;SDS011;12036;50.858;4.472;2023-04-24T04:04:02;11.05;;;7.40;;
23714;SDS011;12036;50.858;4.472;2023-04-24T04:06:28;12.95;;;7.15;;
23714;SDS011;12036;50.858;4.472;2023-04-24T04:08:55;10.45;;;7.03;;
23714;SDS011;12036;50.858;4.472;2023-04-24T04:11:21;14.13;;;7.78;;
23714;SDS011;12036;50.858;4.472;2023-04-24T04:13:47;11.18;;;6.80;;
23714;SDS011;12036;50.858;4.472;2023-04-24T04:16:13;14.40;;;7.28;;
23714;SDS011;12036;50.858;4.472;2023-04-24T04:18:41;9.35;;;6.57;;
23714;SDS011;12036;50.858;4.472;2023-04-24T04:21:07;8.27;;;6.20;;
23714;SDS011;12036;50.858;4.472;2023-04-24T04:23:33;14.95;;;6.97;;
23714;SDS011;12036;50.858;4.472;2023-04-24T04:25:58;10.98;;;6.40;;
23714;SDS011;12036;50.858;4.472;2023-04-24T04:28:24;10.52;;;6.70;;
23714;SDS011;12036;50.858;4.472;2023-04-24T04:30:51;8.57;;;6.32;;
23714;SDS011;12036;50.858;4.472;2023-04-24T04:33:20;9.82;;;6.68;;
23714;SDS011;12036;50.858;4.472;2023-04-24T04:35:46;11.20;;;6.22;;
23714;SDS011;12036;50.858;4.472;2023-04-24T04:38:14;12.30;;;7.00;;
23714;SDS011;12036;50.858;4.472;2023-04-24T04:40:40;12.55;;;7.00;;
23714;SDS011;12036;50.858;4.472;2023-04-24T04:43:06;15.20;;;6.90;;
23714;SDS011;12036;50.858;4.472;2023-04-24T04:45:33;9.88;;;6.65;;
23714;SDS011;12036;50.858;4.472;2023-04-24T04:47:59;9.88;;;6.32;;
23714;SDS011;12036;50.858;4.472;2023-04-24T04:50:26;12.07;;;6.60;;
23714;SDS011;12036;50.858;4.472;2023-04-24T04:52:52;10.45;;;6.55;;
23714;SDS011;12036;50.858;4.472;2023-04-24T04:55:18;12.13;;;6.00;;
23714;SDS011;12036;50.858;4.472;2023-04-24T04:57:46;13.35;;;7.10;;
23714;SDS011;12036;50.858;4.472;2023-04-24T05:00:13;12.13;;;7.40;;
23714;SDS011;12036;50.858;4.472;2023-04-24T05:02:39;12.35;;;7.45;;
23714;SDS011;12036;50.858;4.472;2023-04-24T05:05:05;11.32;;;6.72;;
23714;SDS011;12036;50.858;4.472;2023-04-24T05:07:31;14.43;;;8.00;;
23714;SDS011;12036;50.858;4.472;2023-04-24T05:09:57;17.30;;;8.15;;
23714;SDS011;12036;50.858;4.472;2023-04-24T05:12:23;12.52;;;8.23;;
23714;SDS011;12036;50.858;4.472;2023-04-24T05:14:49;16.20;;;8.70;;
23714;SDS011;12036;50.858;4.472;2023-04-24T05:17:14;15.70;;;9.20;;
23714;SDS011;12036;50.858;4.472;2023-04-24T05:19:41;24.65;;;10.38;;
23714;SDS011;12036;50.858;4.472;2023-04-24T05:22:07;21.27;;;10.32;;
23714;SDS011;12036;50.858;4.472;2023-04-24T05:24:34;15.13;;;10.02;;
23714;SDS011;12036;50.858;4.472;2023-04-24T05:27:00;22.77;;;10.50;;
23714;SDS011;12036;50.858;4.472;2023-04-24T05:31:58;24.88;;;10.80;;
23714;SDS011;12036;50.858;4.472;2023-04-24T05:34:24;21.23;;;9.43;;
23714;SDS011;12036;50.858;4.472;2023-04-24T05:36:50;20.45;;;11.15;;
23714;SDS011;12036;50.858;4.472;2023-04-24T05:39:16;21.42;;;10.40;;
23714;SDS011;12036;50.858;4.472;2023-04-24T05:41:42;22.60;;;10.38;;
23714;SDS011;12036;50.858;4.472;2023-04-24T05:44:08;23.33;;;10.35;;
23714;SDS011;12036;50.858;4.472;2023-04-24T05:46:34;18.42;;;10.90;;
23714;SDS011;12036;50.858;4.472;2023-04-24T05:48:59;20.92;;;11.18;;
23714;SDS011;12036;50.858;4.472;2023-04-24T05:51:25;24.75;;;10.48;;
23714;SDS011;12036;50.858;4.472;2023-04-24T05:53:51;30.38;;;10.45;;
23714;SDS011;12036;50.858;4.472;2023-04-24T05:56:17;24.75;;;11.93;;
23714;SDS011;12036;50.858;4.472;2023-04-24T05:58:43;24.17;;;10.35;;
23714;SDS011;12036;50.858;4.472;2023-04-24T06:01:11;24.35;;;11.38;;
23714;SDS011;12036;50.858;4.472;2023-04-24T06:03:37;20.60;;;10.93;;
23714;SDS011;12036;50.858;4.472;2023-04-24T06:06:05;27.05;;;12.00;;
23714;SDS011;12036;50.858;4.472;2023-04-24T06:08:31;23.92;;;11.10;;
23714;SDS011;12036;50.858;4.472;2023-04-24T06:10:57;21.52;;;11.60;;
23714;SDS011;12036;50.858;4.472;2023-04-24T06:13:23;26.83;;;11.23;;
23714;SDS011;12036;50.858;4.472;2023-04-24T06:15:49;22.58;;;12.15;;
23714;SDS011;12036;50.858;4.472;2023-04-24T06:18:15;20.60;;;11.10;;
23714;SDS011;12036;50.858;4.472;2023-04-24T06:20:40;21.05;;;10.35;;
23714;SDS011;12036;50.858;4.472;2023-04-24T06:23:06;23.80;;;10.95;;
23714;SDS011;12036;50.858;4.472;2023-04-24T06:25:32;22.75;;;11.38;;
23714;SDS011;12036;50.858;4.472;2023-04-24T06:27:58;24.20;;;11.98;;
23714;SDS011;12036;50.858;4.472;2023-04-24T06:30:32;29.08;;;12.63;;
23714;SDS011;12036;50.858;4.472;2023-04-24T06:32:58;26.63;;;11.48;;
23714;SDS011;12036;50.858;4.472;2023-04-24T06:35:24;24.40;;;13.07;;
23714;SDS011;12036;50.858;4.472;2023-04-24T06:37:49;31.38;;;13.20;;
23714;SDS011;12036;50.858;4.472;2023-04-24T06:40:16;25.25;;;12.40;;
23714;SDS011;12036;50.858;4.472;2023-04-24T06:42:43;30.33;;;13.88;;
23714;SDS011;12036;50.858;4.472;2023-04-24T06:45:09;27.63;;;12.75;;
23714;SDS011;12036;50.858;4.472;2023-04-24T06:47:35;26.17;;;13.60;;
23714;SDS011;12036;50.858;4.472;2023-04-24T06:50:01;30.73;;;14.70;;
23714;SDS011;12036;50.858;4.472;2023-04-24T06:52:26;32.08;;;13.52;;
23714;SDS011;12036;50.858;4.472;2023-04-24T06:54:52;30.23;;;13.95;;
23714;SDS011;12036;50.858;4.472;2023-04-24T06:57:24;32.63;;;13.82;;
23714;SDS011;12036;50.858;4.472;2023-04-24T06:59:50;38.47;;;14.98;;
23714;SDS011;12036;50.858;4.472;2023-04-24T07:02:15;38.33;;;14.60;;
23714;SDS011;12036;50.858;4.472;2023-04-24T07:04:41;41.97;;;15.85;;
23714;SDS011;12036;50.858;4.472;2023-04-24T07:07:06;40.90;;;16.23;;
23714;SDS011;12036;50.858;4.472;2023-04-24T07:09:34;34.95;;;16.00;;
23714;SDS011;12036;50.858;4.472;2023-04-24T07:12:03;27.02;;;15.13;;
23714;SDS011;12036;50.858;4.472;2023-04-24T07:14:29;32.72;;;15.32;;
23714;SDS011;12036;50.858;4.472;2023-04-24T07:16:54;35.50;;;14.80;;
23714;SDS011;12036;50.858;4.472;2023-04-24T07:19:22;29.58;;;15.30;;
23714;SDS011;12036;50.858;4.472;2023-04-24T07:21:47;34.58;;;14.48;;
23714;SDS011;12036;50.858;4.472;2023-04-24T07:24:13;28.75;;;14.38;;
23714;SDS011;12036;50.858;4.472;2023-04-24T07:26:38;26.80;;;14.48;;
23714;SDS011;12036;50.858;4.472;2023-04-24T07:29:05;36.08;;;13.82;;
23714;SDS011;12036;50.858;4.472;2023-04-24T07:31:31;36.42;;;13.27;;
23714;SDS011;12036;50.858;4.472;2023-04-24T07:33:56;23.80;;;12.15;;
23714;SDS011;12036;50.858;4.472;2023-04-24T07:36:23;30.10;;;14.50;;
23714;SDS011;12036;50.858;4.472;2023-04-24T07:38:50;27.25;;;12.52;;
23714;SDS011;12036;50.858;4.472;2023-04-24T07:41:16;29.90;;;13.18;;
23714;SDS011;12036;50.858;4.472;2023-04-24T07:43:42;23.90;;;11.40;;
23714;SDS011;12036;50.858;4.472;2023-04-24T07:46:08;21.90;;;10.60;;
23714;SDS011;12036;50.858;4.472;2023-04-24T07:48:34;19.20;;;10.15;;
23714;SDS011;12036;50.858;4.472;2023-04-24T07:51:00;24.40;;;11.00;;
23714;SDS011;12036;50.858;4.472;2023-04-24T07:53:26;24.13;;;10.30;;
23714;SDS011;12036;50.858;4.472;2023-04-24T07:55:51;24.13;;;9.80;;
23714;SDS011;12036;50.858;4.472;2023-04-24T07:58:18;21.08;;;9.38;;
23714;SDS011;12036;50.858;4.472;2023-04-24T08:00:44;20.88;;;9.68;;
23714;SDS011;12036;50.858;4.472;2023-04-24T08:03:10;26.95;;;9.60;;
23714;SDS011;12036;50.858;4.472;2023-04-24T08:05:37;24.13;;;10.82;;
23714;SDS011;12036;50.858;4.472;2023-04-24T08:08:03;22.25;;;11.10;;
23714;SDS011;12036;50.858;4.472;2023-04-24T08:10:28;20.38;;;9.93;;
23714;SDS011;12036;50.858;4.472;2023-04-24T08:12:54;19.65;;;10.00;;
23714;SDS011;12036;50.858;4.472;2023-04-24T08:15:20;24.60;;;10.40;;
23714;SDS011;12036;50.858;4.472;2023-04-24T08:17:46;21.83;;;9.55;;
23714;SDS011;12036;50.858;4.472;2023-04-24T08:20:12;19.27;;;9.68;;
23714;SDS011;12036;50.858;4.472;2023-04-24T08:22:41;20.13;;;9.77;;
23714;SDS011;12036;50.858;4.472;2023-04-24T08:25:08;22.35;;;9.30;;
23714;SDS011;12036;50.858;4.472;2023-04-24T08:27:35;21.85;;;7.88;;
23714;SDS011;12036;50.858;4.472;2023-04-24T08:30:02;19.48;;;8.75;;
23714;SDS011;12036;50.858;4.472;2023-04-24T08:32:28;15.05;;;7.55;;
23714;SDS011;12036;50.858;4.472;2023-04-24T08:34:54;16.00;;;7.75;;
23714;SDS011;12036;50.858;4.472;2023-04-24T08:37:21;16.42;;;7.43;;
23714;SDS011;12036;50.858;4.472;2023-04-24T08:39:51;23.73;;;8.18;;
23714;SDS011;12036;50.858;4.472;2023-04-24T08:42:18;15.15;;;7.47;;
23714;SDS011;12036;50.858;4.472;2023-04-24T08:44:44;16.40;;;7.63;;
23714;SDS011;12036;50.858;4.472;2023-04-24T08:47:10;17.48;;;6.70;;
23714;SDS011;12036;50.858;4.472;2023-04-24T08:49:37;21.30;;;7.00;;
23714;SDS011;12036;50.858;4.472;2023-04-24T08:52:04;13.88;;;6.30;;
23714;SDS011;12036;50.858;4.472;2023-04-24T08:54:31;12.38;;;5.55;;
23714;SDS011;12036;50.858;4.472;2023-04-24T08:56:59;14.50;;;6.32;;
23714;SDS011;12036;50.858;4.472;2023-04-24T08:59:31;12.77;;;5.80;;
23714;SDS011;12036;50.858;4.472;2023-04-24T09:01:58;17.85;;;5.45;;
23714;SDS011;12036;50.858;4.472;2023-04-24T09:04:24;11.90;;;5.68;;
23714;SDS011;12036;50.858;4.472;2023-04-24T09:06:52;11.10;;;5.38;;
23714;SDS011;12036;50.858;4.472;2023-04-24T09:09:21;11.82;;;5.45;;
23714;SDS011;12036;50.858;4.472;2023-04-24T09:11:51;13.43;;;4.55;;
23714;SDS011;12036;50.858;4.472;2023-04-24T09:14:19;14.35;;;4.78;;
23714;SDS011;12036;50.858;4.472;2023-04-24T09:16:46;9.30;;;4.30;;
23714;SDS011;12036;50.858;4.472;2023-04-24T09:19:12;11.07;;;4.75;;
23714;SDS011;12036;50.858;4.472;2023-04-24T09:21:38;8.45;;;4.00;;
23714;SDS011;12036;50.858;4.472;2023-04-24T09:24:07;7.55;;;3.90;;
23714;SDS011;12036;50.858;4.472;2023-04-24T09:26:39;9.85;;;4.30;;
23714;SDS011;12036;50.858;4.472;2023-04-24T09:29:05;8.57;;;3.50;;
23714;SDS011;12036;50.858;4.472;2023-04-24T09:31:31;11.75;;;4.00;;
23714;SDS011;12036;50.858;4.472;2023-04-24T09:34:00;7.75;;;3.60;;
23714;SDS011;12036;50.858;4.472;2023-04-24T09:36:35;7.38;;;3.55;;
23714;SDS011;12036;50.858;4.472;2023-04-24T09:39:03;9.05;;;3.55;;
23714;SDS011;12036;50.858;4.472;2023-04-24T09:41:31;7.95;;;3.17;;
23714;SDS011;12036;50.858;4.472;2023-04-24T09:43:58;10.75;;;3.95;;
23714;SDS011;12036;50.858;4.472;2023-04-24T09:46:36;8.43;;;3.55;;
23714;SDS011;12036;50.858;4.472;2023-04-24T09:49:09;10.32;;;4.10;;
23714;SDS011;12036;50.858;4.472;2023-04-24T09:51:37;8.80;;;3.67;;
23714;SDS011;12036;50.858;4.472;2023-04-24T09:54:03;12.55;;;4.15;;
23714;SDS011;12036;50.858;4.472;2023-04-24T09:56:35;9.35;;;3.90;;
23714;SDS011;12036;50.858;4.472;2023-04-24T09:59:10;8.35;;;4.05;;
23714;SDS011;12036;50.858;4.472;2023-04-24T10:01:36;7.28;;;3.90;;
23714;SDS011;12036;50.858;4.472;2023-04-24T10:04:03;9.63;;;3.95;;
23714;SDS011;12036;50.858;4.472;2023-04-24T10:06:35;11.00;;;3.97;;
23714;SDS011;12036;50.858;4.472;2023-04-24T10:09:01;7.65;;;3.25;;
23714;SDS011;12036;50.858;4.472;2023-04-24T10:11:28;9.43;;;3.28;;
23714;SDS011;12036;50.858;4.472;2023-04-24T10:13:55;10.45;;;3.13;;
23714;SDS011;12036;50.858;4.472;2023-04-24T10:16:22;7.40;;;3.25;;
23714;SDS011;12036;50.858;4.472;2023-04-24T10:18:48;9.30;;;3.80;;
23714;SDS011;12036;50.858;4.472;2023-04-24T10:21:15;10.65;;;3.35;;
23714;SDS011;12036;50.858;4.472;2023-04-24T10:23:42;8.45;;;3.88;;
23714;SDS011;12036;50.858;4.472;2023-04-24T10:26:11;7.05;;;3.65;;
23714;SDS011;12036;50.858;4.472;2023-04-24T10:28:46;6.15;;;3.50;;
23714;SDS011;12036;50.858;4.472;2023-04-24T10:31:12;5.72;;;3.38;;
23714;SDS011;12036;50.858;4.472;2023-04-24T10:33:39;8.98;;;4.43;;
23714;SDS011;12036;50.858;4.472;2023-04-24T10:36:07;9.23;;;4.03;;
23714;SDS011;12036;50.858;4.472;2023-04-24T10:38:38;9.60;;;4.20;;
23714;SDS011;12036;50.858;4.472;2023-04-24T10:41:07;9.88;;;4.75;;
23714;SDS011;12036;50.858;4.472;2023-04-24T10:43:41;8.43;;;3.95;;
23714;SDS011;12036;50.858;4.472;2023-04-24T10:46:07;7.25;;;3.55;;
23714;SDS011;12036;50.858;4.472;2023-04-24T10:48:35;10.60;;;3.47;;
23714;SDS011;12036;50.858;4.472;2023-04-24T10:51:10;9.38;;;3.75;;
23714;SDS011;12036;50.858;4.472;2023-04-24T10:53:36;8.65;;;3.40;;
23714;SDS011;12036;50.858;4.472;2023-04-24T10:56:06;5.30;;;3.13;;
23714;SDS011;12036;50.858;4.472;2023-04-24T10:58:49;5.57;;;3.03;;
23714;SDS011;12036;50.858;4.472;2023-04-24T11:03:56;9.65;;;3.42;;
23714;SDS011;12036;50.858;4.472;2023-04-24T11:06:35;7.03;;;3.45;;
23714;SDS011;12036;50.858;4.472;2023-04-24T11:09:09;8.07;;;3.88;;
23714;SDS011;12036;50.858;4.472;2023-04-24T11:11:37;10.15;;;4.28;;
23714;SDS011;12036;50.858;4.472;2023-04-24T11:14:09;12.07;;;4.28;;
23714;SDS011;12036;50.858;4.472;2023-04-24T11:16:37;10.38;;;5.00;;
23714;SDS011;12036;50.858;4.472;2023-04-24T11:19:08;7.07;;;4.00;;
23714;SDS011;12036;50.858;4.472;2023-04-24T11:27:00;14.18;;;5.05;;
23714;SDS011;12036;50.858;4.472;2023-04-24T11:34:53;9.32;;;4.60;;
23714;SDS011;12036;50.858;4.472;2023-04-24T11:37:18;10.98;;;4.75;;
23714;SDS011;12036;50.858;4.472;2023-04-24T11:39:44;6.43;;;4.22;;
23714;SDS011;12036;50.858;4.472;2023-04-24T11:42:10;8.23;;;4.43;;
23714;SDS011;12036;50.858;4.472;2023-04-24T11:44:38;7.03;;;3.95;;
23714;SDS011;12036;50.858;4.472;2023-04-24T11:47:06;8.07;;;4.35;;
23714;SDS011;12036;50.858;4.472;2023-04-24T11:49:32;5.07;;;3.67;;
23714;SDS011;12036;50.858;4.472;2023-04-24T11:51:57;5.65;;;3.40;;
23714;SDS011;12036;50.858;4.472;2023-04-24T11:54:25;7.90;;;3.72;;
23714;SDS011;12036;50.858;4.472;2023-04-24T11:56:50;6.82;;;4.10;;
23714;SDS011;12036;50.858;4.472;2023-04-24T11:59:22;9.27;;;4.00;;
23714;SDS011;12036;50.858;4.472;2023-04-24T12:01:48;6.50;;;4.03;;
23714;SDS011;12036;50.858;4.472;2023-04-24T12:04:15;7.47;;;4.25;;
23714;SDS011;12036;50.858;4.472;2023-04-24T12:09:40;8.27;;;4.88;;
23714;SDS011;12036;50.858;4.472;2023-04-24T12:12:16;12.10;;;4.63;;
23714;SDS011;12036;50.858;4.472;2023-04-24T12:14:50;8.32;;;4.30;;
23714;SDS011;12036;50.858;4.472;2023-04-24T12:17:23;10.55;;;4.32;;
23714;SDS011;12036;50.858;4.472;2023-04-24T12:19:57;7.40;;;3.95;;
23714;SDS011;12036;50.858;4.472;2023-04-24T12:22:25;7.60;;;4.50;;
23714;SDS011;12036;50.858;4.472;2023-04-24T12:25:03;10.07;;;4.20;;
23714;SDS011;12036;50.858;4.472;2023-04-24T12:27:31;6.57;;;3.50;;
23714;SDS011;12036;50.858;4.472;2023-04-24T12:29:58;6.72;;;4.18;;
23714;SDS011;12036;50.858;4.472;2023-04-24T12:32:25;6.78;;;3.80;;
23714;SDS011;12036;50.858;4.472;2023-04-24T12:34:51;5.55;;;3.50;;
23714;SDS011;12036;50.858;4.472;2023-04-24T12:37:18;9.57;;;4.00;;
23714;SDS011;12036;50.858;4.472;2023-04-24T12:39:45;7.18;;;3.42;;
23714;SDS011;12036;50.858;4.472;2023-04-24T12:42:33;6.55;;;2.97;;
23714;SDS011;12036;50.858;4.472;2023-04-24T12:45:03;5.57;;;3.78;;
23714;SDS011;12036;50.858;4.472;2023-04-24T12:47:31;6.40;;;3.40;;
23714;SDS011;12036;50.858;4.472;2023-04-24T12:49:57;6.38;;;2.90;;
23714;SDS011;12036;50.858;4.472;2023-04-24T12:52:24;5.30;;;3.20;;
23714;SDS011;12036;50.858;4.472;2023-04-24T12:54:54;4.45;;;3.00;;
23714;SDS011;12036;50.858;4.472;2023-04-24T12:57:22;4.72;;;2.80;;
23714;SDS011;12036;50.858;4.472;2023-04-24T12:59:48;6.68;;;3.20;;
23714;SDS011;12036;50.858;4.472;2023-04-24T13:02:14;4.28;;;3.08;;
23714;SDS011;12036;50.858;4.472;2023-04-24T13:04:43;4.63;;;2.90;;
23714;SDS011;12036;50.858;4.472;2023-04-24T13:07:12;4.95;;;2.63;;
23714;SDS011;12036;50.858;4.472;2023-04-24T13:09:39;4.70;;;2.45;;
23714;SDS011;12036;50.858;4.472;2023-04-24T13:12:06;5.63;;;2.83;;
23714;SDS011;12036;50.858;4.472;2023-04-24T13:14:32;6.38;;;2.67;;
23714;SDS011;12036;50.858;4.472;2023-04-24T13:16:58;5.90;;;2.63;;
23714;SDS011;12036;50.858;4.472;2023-04-24T13:19:24;4.20;;;2.92;;
23714;SDS011;12036;50.858;4.472;2023-04-24T13:21:51;5.43;;;2.80;;
23714;SDS011;12036;50.858;4.472;2023-04-24T13:24:17;6.45;;;2.90;;
23714;SDS011;12036;50.858;4.472;2023-04-24T13:26:43;3.95;;;2.85;;
23714;SDS011;12036;50.858;4.472;2023-04-24T13:29:09;3.92;;;2.63;;
23714;SDS011;12036;50.858;4.472;2023-04-24T13:31:35;4.70;;;3.20;;
23714;SDS011;12036;50.858;4.472;2023-04-24T13:34:01;3.25;;;2.40;;
23714;SDS011;12036;50.858;4.472;2023-04-24T13:36:28;6.25;;;2.70;;
23714;SDS011;12036;50.858;4.472;2023-04-24T13:38:55;2.67;;;2.20;;
23714;SDS011;12036;50.858;4.472;2023-04-24T13:41:20;5.60;;;2.60;;
23714;SDS011;12036;50.858;4.472;2023-04-24T13:43:46;8.13;;;2.22;;
23714;SDS011;12036;50.858;4.472;2023-04-24T13:46:12;7.20;;;2.30;;
23714;SDS011;12036;50.858;4.472;2023-04-24T13:48:37;4.25;;;2.15;;
23714;SDS011;12036;50.858;4.472;2023-04-24T13:51:04;3.83;;;1.88;;
23714;SDS011;12036;50.858;4.472;2023-04-24T13:53:30;2.90;;;1.92;;
23714;SDS011;12036;50.858;4.472;2023-04-24T13:55:57;4.88;;;2.22;;
23714;SDS011;12036;50.858;4.472;2023-04-24T13:58:22;5.60;;;2.05;;
23714;SDS011;12036;50.858;4.472;2023-04-24T14:00:48;3.50;;;1.80;;
23714;SDS011;12036;50.858;4.472;2023-04-24T14:03:14;6.43;;;2.00;;
23714;SDS011;12036;50.858;4.472;2023-04-24T14:05:40;4.38;;;1.75;;
23714;SDS011;12036;50.858;4.472;2023-04-24T14:08:05;4.28;;;2.00;;
23714;SDS011;12036;50.858;4.472;2023-04-24T14:10:31;6.72;;;2.00;;
23714;SDS011;12036;50.858;4.472;2023-04-24T14:12:56;3.70;;;1.90;;
23714;SDS011;12036;50.858;4.472;2023-04-24T14:15:22;3.40;;;1.25;;
23714;SDS011;12036;50.858;4.472;2023-04-24T14:17:48;3.78;;;1.90;;
23714;SDS011;12036;50.858;4.472;2023-04-24T14:20:14;3.83;;;1.77;;
23714;SDS011;12036;50.858;4.472;2023-04-24T14:22:40;4.75;;;1.80;;
23714;SDS011;12036;50.858;4.472;2023-04-24T14:25:06;5.07;;;1.73;;
23714;SDS011;12036;50.858;4.472;2023-04-24T14:27:32;3.22;;;1.48;;
23714;SDS011;12036;50.858;4.472;2023-04-24T14:29:59;4.32;;;1.98;;
23714;SDS011;12036;50.858;4.472;2023-04-24T14:32:25;4.55;;;1.92;;
23714;SDS011;12036;50.858;4.472;2023-04-24T14:34:51;3.47;;;1.63;;
23714;SDS011;12036;50.858;4.472;2023-04-24T14:37:16;6.60;;;1.85;;
23714;SDS011;12036;50.858;4.472;2023-04-24T14:39:42;4.10;;;1.80;;
23714;SDS011;12036;50.858;4.472;2023-04-24T14:42:08;5.15;;;1.70;;
23714;SDS011;12036;50.858;4.472;2023-04-24T14:44:33;4.40;;;1.63;;
23714;SDS011;12036;50.858;4.472;2023-04-24T14:46:59;5.68;;;1.85;;
23714;SDS011;12036;50.858;4.472;2023-04-24T14:49:25;5.95;;;1.67;;